createdAt,value
2018-08-19T00:01:44.729Z,11.60
2018-08-19T00:04:13.301Z,11.70
2018-08-19T00:06:42.193Z,11.70
2018-08-19T00:09:12.413Z,11.70
2018-08-19T00:11:41.330Z,11.60
2018-08-19T00:14:23.423Z,11.50
2018-08-19T00:16:51.514Z,11.50
2018-08-19T00:19:19.650Z,11.40
2018-08-19T00:21:47.806Z,11.30
2018-08-19T00:24:15.786Z,11.30
2018-08-19T00:26:43.865Z,11.30
2018-08-19T00:29:11.964Z,11.30
2018-08-19T00:31:40.066Z,11.30
2018-08-19T00:34:08.120Z,11.40
2018-08-19T00:36:36.422Z,11.50
2018-08-19T00:39:07.457Z,11.50
2018-08-19T00:41:35.490Z,11.40
2018-08-19T00:44:03.561Z,11.30
2018-08-19T00:46:32.590Z,11.30
2018-08-19T00:49:01.343Z,11.30
2018-08-19T00:51:29.397Z,11.30
2018-08-19T00:53:57.638Z,11.20
2018-08-19T00:56:25.713Z,11.10
2018-08-19T00:58:53.766Z,11.00
2018-08-19T01:01:36.810Z,10.90
2018-08-19T01:04:07.811Z,10.90
2018-08-19T01:06:41.357Z,10.90
2018-08-19T01:09:10.063Z,10.90
2018-08-19T01:11:40.638Z,11.00
2018-08-19T01:14:15.292Z,11.00
2018-08-19T01:16:43.482Z,11.00
2018-08-19T01:19:11.674Z,11.00
2018-08-19T01:21:39.739Z,10.90
2018-08-19T01:24:09.673Z,10.90
2018-08-19T01:26:38.974Z,10.90
2018-08-19T01:29:09.228Z,11.00
2018-08-19T01:31:37.307Z,11.00
2018-08-19T01:34:14.045Z,11.00
2018-08-19T01:36:43.230Z,10.90
2018-08-19T01:39:12.441Z,10.90
2018-08-19T01:41:41.261Z,10.90
2018-08-19T01:44:10.769Z,11.00
2018-08-19T01:46:42.707Z,11.00
2018-08-19T01:49:11.422Z,11.00
2018-08-19T01:51:41.931Z,11.10
2018-08-19T01:54:15.341Z,11.20
2018-08-19T01:56:44.602Z,11.20
2018-08-19T01:59:12.698Z,11.20
2018-08-19T02:01:51.071Z,11.20
2018-08-19T02:04:19.899Z,11.20
2018-08-19T02:06:47.977Z,11.10
2018-08-19T02:09:17.093Z,11.00
2018-08-19T02:11:46.069Z,10.90
2018-08-19T02:14:14.738Z,10.90
2018-08-19T02:16:42.810Z,10.90
2018-08-19T02:19:11.827Z,10.90
2018-08-19T02:21:40.094Z,11.00
2018-08-19T02:24:08.563Z,11.00
2018-08-19T02:26:36.627Z,11.00
2018-08-19T02:29:20.616Z,10.90
2018-08-19T02:31:48.684Z,10.80
2018-08-19T02:34:19.904Z,10.80
2018-08-19T02:36:47.994Z,10.90
2018-08-19T02:39:16.129Z,10.70
2018-08-19T02:41:48.565Z,10.60
2018-08-19T02:44:16.619Z,10.60
2018-08-19T02:46:44.678Z,10.70
2018-08-19T02:49:12.830Z,10.70
2018-08-19T02:51:40.899Z,10.70
2018-08-19T02:54:08.954Z,10.70
2018-08-19T02:56:37.010Z,10.70
2018-08-19T02:59:05.062Z,10.60
2018-08-19T03:01:33.137Z,10.50
2018-08-19T03:04:01.210Z,10.40
2018-08-19T03:06:29.294Z,10.30
2018-08-19T03:09:00.277Z,10.30
2018-08-19T03:11:28.363Z,10.30
2018-08-19T03:13:56.933Z,10.30
2018-08-19T03:16:25.001Z,10.30
2018-08-19T03:18:53.302Z,10.30
2018-08-19T03:21:22.302Z,10.40
2018-08-19T03:23:52.110Z,10.50
2018-08-19T03:26:20.290Z,10.50
2018-08-19T03:28:48.344Z,10.50
2018-08-19T03:31:16.412Z,10.50
2018-08-19T03:33:44.466Z,10.40
2018-08-19T03:36:12.536Z,10.40
2018-08-19T03:38:40.579Z,10.30
2018-08-19T03:41:08.637Z,10.30
2018-08-19T03:43:36.698Z,10.20
2018-08-19T03:46:10.324Z,10.20
2018-08-19T03:48:38.383Z,10.20
2018-08-19T03:51:06.444Z,10.30
2018-08-19T03:53:34.499Z,10.40
2018-08-19T03:56:02.553Z,10.50
2018-08-19T03:58:30.606Z,10.70
2018-08-19T04:00:58.662Z,10.70
2018-08-19T04:03:26.949Z,10.70
2018-08-19T04:05:58.386Z,10.60
2018-08-19T04:08:31.010Z,10.40
2018-08-19T04:10:59.410Z,10.30
2018-08-19T04:13:31.173Z,10.20
2018-08-19T04:16:01.175Z,10.10
2018-08-19T04:18:34.746Z,10.10
2018-08-19T04:21:04.377Z,10.20
2018-08-19T04:23:33.966Z,10.30
2018-08-19T04:26:02.274Z,10.50
2018-08-19T04:28:30.346Z,10.60
2018-08-19T04:30:58.445Z,10.70
2018-08-19T04:33:32.529Z,10.80
2018-08-19T04:36:01.315Z,10.90
2018-08-19T04:38:30.103Z,10.90
2018-08-19T04:40:59.343Z,10.90
2018-08-19T04:43:28.502Z,11.10
2018-08-19T04:45:56.569Z,11.20
2018-08-19T04:48:26.091Z,11.30
2018-08-19T04:50:55.409Z,11.50
2018-08-19T04:53:23.479Z,11.70
2018-08-19T04:55:51.931Z,11.80
2018-08-19T04:58:19.995Z,11.90
2018-08-19T05:00:48.110Z,12.00
2018-08-19T05:03:16.182Z,12.20
2018-08-19T05:05:44.241Z,12.50
2018-08-19T05:08:13.018Z,12.90
2018-08-19T05:10:41.800Z,13.20
2018-08-19T05:13:10.340Z,13.40
2018-08-19T05:15:39.572Z,13.40
2018-08-19T05:18:07.866Z,13.40
2018-08-19T05:20:35.984Z,13.60
2018-08-19T05:23:04.072Z,14.10
2018-08-19T05:25:32.134Z,14.60
2018-08-19T05:28:06.199Z,15.30
2018-08-19T05:30:36.107Z,16.00
2018-08-19T05:33:05.338Z,16.60
2018-08-19T05:35:34.309Z,17.20
2018-08-19T05:38:03.359Z,17.70
2018-08-19T05:40:32.845Z,18.50
2018-08-19T05:43:00.945Z,18.80
2018-08-19T05:45:29.061Z,19.20
2018-08-19T05:48:10.035Z,19.70
2018-08-19T05:50:38.136Z,20.10
2018-08-19T05:53:06.335Z,20.40
2018-08-19T05:55:34.494Z,20.50
2018-08-19T05:58:02.621Z,20.70
2018-08-19T06:00:31.171Z,20.90
2018-08-19T06:03:01.750Z,21.50
2018-08-19T06:05:30.243Z,21.90
2018-08-19T06:08:14.950Z,22.40
2018-08-19T06:10:43.146Z,23.00
2018-08-19T06:13:12.208Z,23.50
2018-08-19T06:15:40.488Z,23.80
2018-08-19T06:18:09.112Z,23.70
2018-08-19T06:20:37.309Z,23.60
2018-08-19T06:23:05.458Z,23.70
2018-08-19T06:25:33.586Z,23.70
2018-08-19T06:28:01.714Z,23.70
2018-08-19T06:30:29.810Z,23.70
2018-08-19T06:32:57.896Z,24.40
2018-08-19T06:35:25.970Z,25.00
2018-08-19T06:37:54.085Z,25.50
2018-08-19T06:40:23.414Z,25.60
2018-08-19T06:42:51.500Z,25.60
2018-08-19T06:45:19.650Z,25.80
2018-08-19T06:47:47.888Z,25.90
2018-08-19T06:50:22.720Z,26.20
2018-08-19T06:52:51.149Z,27.20
2018-08-19T06:55:19.302Z,27.60
2018-08-19T06:57:47.691Z,27.90
2018-08-19T07:00:24.254Z,27.50
2018-08-19T07:02:52.478Z,27.70
2018-08-19T07:05:20.599Z,27.90
2018-08-19T07:07:48.736Z,27.70
2018-08-19T07:10:27.369Z,27.70
2018-08-19T07:13:14.856Z,27.80
2018-08-19T07:15:44.054Z,28.40
2018-08-19T07:18:14.181Z,29.00
2018-08-19T07:20:43.103Z,29.70
2018-08-19T07:23:11.769Z,30.60
2018-08-19T07:25:41.981Z,31.20
2018-08-19T07:28:10.975Z,31.80
2018-08-19T07:30:39.619Z,32.30
2018-08-19T07:33:07.947Z,32.20
2018-08-19T07:35:36.108Z,31.70
2018-08-19T07:38:04.238Z,31.50
2018-08-19T07:40:32.413Z,31.40
2018-08-19T07:43:00.555Z,31.70
2018-08-19T07:45:28.786Z,32.00
2018-08-19T07:47:57.012Z,32.20
2018-08-19T07:50:25.604Z,32.00
2018-08-19T07:52:53.925Z,32.10
2018-08-19T07:55:22.085Z,32.40
2018-08-19T07:57:50.166Z,32.60
2018-08-19T08:00:23.959Z,33.50
2018-08-19T08:02:54.488Z,33.20
2018-08-19T08:05:22.696Z,33.50
2018-08-19T08:07:51.112Z,33.30
2018-08-19T08:10:19.501Z,33.20
2018-08-19T08:12:54.495Z,33.50
2018-08-19T08:15:22.786Z,33.70
2018-08-19T08:17:54.665Z,32.90
2018-08-19T08:20:22.775Z,32.80
2018-08-19T08:22:51.003Z,33.50
2018-08-19T08:25:19.210Z,34.40
2018-08-19T08:27:47.394Z,34.00
2018-08-19T08:30:15.545Z,32.50
2018-08-19T08:32:45.680Z,32.90
2018-08-19T08:35:13.954Z,33.90
2018-08-19T08:37:42.157Z,34.90
2018-08-19T08:40:11.071Z,35.40
2018-08-19T08:42:39.937Z,34.70
2018-08-19T08:45:09.130Z,33.70
2018-08-19T08:47:37.398Z,34.00
2018-08-19T08:50:05.855Z,33.70
2018-08-19T08:52:34.138Z,33.10
2018-08-19T08:55:03.489Z,32.80
2018-08-19T08:57:32.191Z,33.30
2018-08-19T09:00:00.550Z,33.30
2018-08-19T09:02:28.751Z,32.50
2018-08-19T09:04:56.941Z,32.10
2018-08-19T09:07:27.112Z,31.80
2018-08-19T09:09:55.398Z,32.40
2018-08-19T09:12:35.092Z,32.30
2018-08-19T09:15:03.293Z,32.00
2018-08-19T09:17:31.512Z,32.40
2018-08-19T09:19:59.747Z,32.50
2018-08-19T09:22:27.958Z,32.80
2018-08-19T09:24:56.095Z,32.60
2018-08-19T09:27:24.394Z,33.00
2018-08-19T09:29:52.543Z,33.10
2018-08-19T09:32:20.730Z,33.00
2018-08-19T09:34:49.042Z,33.20
2018-08-19T09:37:17.237Z,34.40
2018-08-19T09:39:45.402Z,35.20
2018-08-19T09:42:13.688Z,35.10
2018-08-19T09:44:43.454Z,35.50
2018-08-19T09:47:11.765Z,35.20
2018-08-19T09:49:40.095Z,33.50
2018-08-19T09:52:08.231Z,33.10
2018-08-19T09:54:38.918Z,32.90
2018-08-19T09:57:08.305Z,33.40
2018-08-19T09:59:36.514Z,33.50
2018-08-19T10:02:08.009Z,34.30
2018-08-19T10:04:36.350Z,35.80
2018-08-19T10:07:10.074Z,36.60
2018-08-19T10:09:38.289Z,36.10
2018-08-19T10:12:06.770Z,36.00
2018-08-19T10:14:34.932Z,36.70
2018-08-19T10:17:03.432Z,36.60
2018-08-19T10:19:31.892Z,37.70
2018-08-19T10:22:00.059Z,39.00
2018-08-19T10:24:29.811Z,39.20
2018-08-19T10:26:58.303Z,38.80
2018-08-19T10:29:26.459Z,38.70
2018-08-19T10:31:57.095Z,37.80
2018-08-19T10:34:30.255Z,38.30
2018-08-19T10:36:59.186Z,39.00
2018-08-19T10:39:27.643Z,39.00
2018-08-19T10:42:13.531Z,37.60
2018-08-19T10:44:41.805Z,36.90
2018-08-19T10:47:09.939Z,36.40
2018-08-19T10:49:38.180Z,36.50
2018-08-19T10:52:07.683Z,37.20
2018-08-19T10:54:35.875Z,38.10
2018-08-19T10:57:16.202Z,38.50
2018-08-19T10:59:44.681Z,38.90
2018-08-19T11:02:12.958Z,38.80
2018-08-19T11:04:41.218Z,38.60
2018-08-19T11:07:09.491Z,39.20
2018-08-19T11:09:48.921Z,40.60
2018-08-19T11:12:17.071Z,40.70
2018-08-19T11:14:45.246Z,40.60
2018-08-19T11:17:13.497Z,39.60
2018-08-19T11:19:41.637Z,38.60
2018-08-19T11:22:09.842Z,38.00
2018-08-19T11:24:37.985Z,37.40
2018-08-19T11:27:07.115Z,36.50
2018-08-19T11:29:36.982Z,35.80
2018-08-19T11:32:05.376Z,35.60
2018-08-19T11:34:33.650Z,36.50
2018-08-19T11:37:02.019Z,36.90
2018-08-19T11:39:35.706Z,38.20
2018-08-19T11:42:03.934Z,39.60
2018-08-19T11:44:35.295Z,37.80
2018-08-19T11:47:03.549Z,36.90
2018-08-19T11:49:31.849Z,37.50
2018-08-19T11:52:03.522Z,38.60
2018-08-19T11:54:35.082Z,39.40
2018-08-19T11:57:08.942Z,41.30
2018-08-19T11:59:41.961Z,41.30
2018-08-19T12:02:14.325Z,40.00
2018-08-19T12:04:42.470Z,39.90
2018-08-19T12:07:10.611Z,38.00
2018-08-19T12:09:42.758Z,36.60
2018-08-19T12:12:11.051Z,36.10
2018-08-19T12:14:39.157Z,36.30
2018-08-19T12:17:12.287Z,35.90
2018-08-19T12:19:42.365Z,35.70
2018-08-19T12:22:10.690Z,37.40
2018-08-19T12:24:41.032Z,39.70
2018-08-19T12:27:11.219Z,41.10
2018-08-19T12:29:40.451Z,42.00
2018-08-19T12:32:17.345Z,40.20
2018-08-19T12:34:54.514Z,38.70
2018-08-19T12:37:23.778Z,39.00
2018-08-19T12:39:52.278Z,38.60
2018-08-19T12:42:20.492Z,37.60
2018-08-19T12:44:51.969Z,37.80
2018-08-19T12:47:22.940Z,38.00
2018-08-19T12:49:52.550Z,38.90
2018-08-19T12:52:23.440Z,38.80
2018-08-19T12:54:56.815Z,38.70
2018-08-19T12:57:25.398Z,39.00
2018-08-19T13:00:00.633Z,39.70
2018-08-19T13:02:29.051Z,40.90
2018-08-19T13:04:57.182Z,40.10
2018-08-19T13:10:03.627Z,40.00
2018-08-19T13:12:36.086Z,39.80
2018-08-19T13:15:05.622Z,38.70
2018-08-19T13:17:33.838Z,38.50
2018-08-19T13:20:07.447Z,39.10
2018-08-19T13:22:42.642Z,39.10
2018-08-19T13:25:10.706Z,39.50
2018-08-19T13:27:38.824Z,39.60
2018-08-19T13:30:07.052Z,39.50
2018-08-19T13:32:35.236Z,40.70
2018-08-19T13:35:03.443Z,41.30
2018-08-19T13:37:31.574Z,41.70
2018-08-19T13:39:59.714Z,41.10
2018-08-19T13:42:27.846Z,39.80
2018-08-19T13:45:00.189Z,38.80
2018-08-19T13:47:28.258Z,38.00
2018-08-19T13:49:56.372Z,36.70
2018-08-19T13:52:24.491Z,36.40
2018-08-19T13:54:59.670Z,35.40
2018-08-19T13:57:27.850Z,35.20
2018-08-19T13:59:55.955Z,35.10
2018-08-19T14:02:24.117Z,35.00
2018-08-19T14:04:52.202Z,34.90
2018-08-19T14:07:20.379Z,35.20
2018-08-19T14:09:48.502Z,35.40
2018-08-19T14:12:16.564Z,35.90
2018-08-19T14:14:44.644Z,36.50
2018-08-19T14:17:12.784Z,35.80
2018-08-19T14:19:40.881Z,35.60
2018-08-19T14:22:08.906Z,36.10
2018-08-19T14:24:36.990Z,37.50
2018-08-19T14:27:05.055Z,37.60
2018-08-19T14:29:33.183Z,36.50
2018-08-19T14:32:01.242Z,35.50
2018-08-19T14:34:29.321Z,35.30
2018-08-19T14:36:57.484Z,35.50
2018-08-19T14:39:25.544Z,35.00
2018-08-19T14:41:53.595Z,35.00
2018-08-19T14:44:21.671Z,35.00
2018-08-19T14:46:52.031Z,35.20
2018-08-19T14:49:20.203Z,35.50
2018-08-19T14:51:56.425Z,35.30
2018-08-19T14:54:24.500Z,34.60
2018-08-19T14:56:52.629Z,33.60
2018-08-19T14:59:20.691Z,33.10
2018-08-19T15:01:48.770Z,32.00
2018-08-19T15:04:17.782Z,31.40
2018-08-19T15:06:46.786Z,32.20
2018-08-19T15:09:17.938Z,32.20
2018-08-19T15:11:46.092Z,32.10
2018-08-19T15:14:17.363Z,32.10
2018-08-19T15:16:47.791Z,31.50
2018-08-19T15:19:15.905Z,30.70
2018-08-19T15:21:56.217Z,30.10
2018-08-19T15:24:24.898Z,29.90
2018-08-19T15:26:52.984Z,29.80
2018-08-19T15:29:26.530Z,30.00
2018-08-19T15:31:54.706Z,30.80
2018-08-19T15:34:22.670Z,31.00
2018-08-19T15:36:50.971Z,31.40
2018-08-19T15:39:19.025Z,31.60
2018-08-19T15:41:47.546Z,31.90
2018-08-19T15:44:15.618Z,32.20
2018-08-19T15:46:44.667Z,32.20
2018-08-19T15:49:12.871Z,31.70
2018-08-19T15:51:40.934Z,31.00
2018-08-19T15:54:09.650Z,30.40
2018-08-19T15:56:37.746Z,29.90
2018-08-19T15:59:08.298Z,29.50
2018-08-19T16:01:36.702Z,29.00
2018-08-19T16:04:10.238Z,28.70
2018-08-19T16:06:38.462Z,28.50
2018-08-19T16:09:08.172Z,28.40
2018-08-19T16:11:36.359Z,28.30
2018-08-19T16:14:08.164Z,28.20
2018-08-19T16:16:36.259Z,28.10
2018-08-19T16:19:04.713Z,28.00
2018-08-19T16:21:32.690Z,27.90
2018-08-19T16:24:00.731Z,27.80
2018-08-19T16:26:28.815Z,27.80
2018-08-19T16:28:56.865Z,27.70
2018-08-19T16:31:24.895Z,27.60
2018-08-19T16:33:53.023Z,27.50
2018-08-19T16:36:21.085Z,27.40
2018-08-19T16:38:49.132Z,27.40
2018-08-19T16:41:17.165Z,27.30
2018-08-19T16:43:45.238Z,27.30
2018-08-19T16:46:13.305Z,27.20
2018-08-19T16:48:41.365Z,27.10
2018-08-19T16:51:09.419Z,27.10
2018-08-19T16:53:37.463Z,27.10
2018-08-19T16:56:05.603Z,27.00
2018-08-19T16:58:33.691Z,26.90
2018-08-19T17:01:01.728Z,26.80
2018-08-19T17:03:31.977Z,26.70
2018-08-19T17:06:00.097Z,26.60
2018-08-19T17:08:28.190Z,26.60
2018-08-19T17:10:56.549Z,26.60
2018-08-19T17:13:25.723Z,26.60
2018-08-19T17:15:53.858Z,26.60
2018-08-19T17:18:22.482Z,26.50
2018-08-19T17:20:50.619Z,26.40
2018-08-19T17:23:20.654Z,26.30
2018-08-19T17:25:48.731Z,26.20
2018-08-19T17:28:18.817Z,26.00
2018-08-19T17:30:47.575Z,25.90
2018-08-19T17:33:15.682Z,25.70
2018-08-19T17:35:45.054Z,25.50
2018-08-19T17:38:13.558Z,25.40
2018-08-19T17:40:41.602Z,25.20
2018-08-19T17:43:09.657Z,25.10
2018-08-19T17:45:38.085Z,24.90
2018-08-19T17:48:06.083Z,24.80
2018-08-19T17:50:36.898Z,24.60
2018-08-19T17:53:05.161Z,24.40
2018-08-19T17:55:33.223Z,24.20
2018-08-19T17:58:01.283Z,24.00
2018-08-19T18:00:29.443Z,23.80
2018-08-19T18:02:57.502Z,23.70
2018-08-19T18:05:25.606Z,23.50
2018-08-19T18:07:54.588Z,23.30
2018-08-19T18:10:22.685Z,23.00
2018-08-19T18:12:51.053Z,22.80
2018-08-19T18:15:19.101Z,22.60
2018-08-19T18:17:55.605Z,22.40
2018-08-19T18:20:24.887Z,22.30
2018-08-19T18:22:54.054Z,22.10
2018-08-19T18:25:22.177Z,21.80
2018-08-19T18:27:50.244Z,21.50
2018-08-19T18:30:20.070Z,21.20
2018-08-19T18:32:48.686Z,21.00
2018-08-19T18:35:16.762Z,20.80
2018-08-19T18:37:45.131Z,20.70
2018-08-19T18:40:17.826Z,20.60
2018-08-19T18:42:46.346Z,20.50
2018-08-19T18:45:14.881Z,20.50
2018-08-19T18:47:49.279Z,20.60
2018-08-19T18:50:17.698Z,20.50
2018-08-19T18:52:45.775Z,20.40
2018-08-19T18:55:13.841Z,20.10
2018-08-19T18:57:47.187Z,19.90
2018-08-19T19:00:15.338Z,19.70
2018-08-19T19:02:48.495Z,19.60
2018-08-19T19:05:48.513Z,19.40
2018-08-19T19:08:17.609Z,19.10
2018-08-19T19:10:54.833Z,18.80
2018-08-19T19:13:23.693Z,18.60
2018-08-19T19:15:51.785Z,18.60
2018-08-19T19:18:19.886Z,18.70
2018-08-19T19:20:53.257Z,18.80
2018-08-19T19:23:25.882Z,19.00
2018-08-19T19:25:53.893Z,19.00
2018-08-19T19:28:22.005Z,19.10
2018-08-19T19:30:53.805Z,19.00
2018-08-19T19:33:21.850Z,19.00
2018-08-19T19:35:49.911Z,18.90
2018-08-19T19:38:17.969Z,18.70
2018-08-19T19:40:46.043Z,18.50
2018-08-19T19:43:14.181Z,18.20
2018-08-19T19:45:46.278Z,17.90
2018-08-19T19:48:14.336Z,17.70
2018-08-19T19:50:42.595Z,17.50
2018-08-19T19:53:10.719Z,17.50
2018-08-19T19:55:38.796Z,17.50
2018-08-19T19:58:06.868Z,17.40
2018-08-19T20:00:50.885Z,17.40
2018-08-19T20:03:19.395Z,17.40
2018-08-19T20:05:47.500Z,17.40
2018-08-19T20:08:15.606Z,17.40
2018-08-19T20:10:45.759Z,17.40
2018-08-19T20:13:13.834Z,17.50
2018-08-19T20:15:41.982Z,17.50
2018-08-19T20:18:10.187Z,17.60
2018-08-19T20:20:38.289Z,17.50
2018-08-19T20:23:16.061Z,17.50
2018-08-19T20:25:44.701Z,17.30
2018-08-19T20:28:12.734Z,17.20
2018-08-19T20:30:41.893Z,16.70
2018-08-19T20:33:16.186Z,16.20
2018-08-19T20:35:44.399Z,15.90
2018-08-19T20:38:12.532Z,15.70
2018-08-19T20:40:40.644Z,15.60
2018-08-19T20:43:14.029Z,15.60
2018-08-19T20:45:42.112Z,15.60
2018-08-19T20:48:10.199Z,15.70
2018-08-19T20:50:38.250Z,15.80
2018-08-19T20:53:06.326Z,15.80
2018-08-19T20:55:34.390Z,15.80
2018-08-19T20:58:02.442Z,15.80
2018-08-19T21:00:30.508Z,15.90
2018-08-19T21:02:58.575Z,15.80
2018-08-19T21:05:26.634Z,15.80
2018-08-19T21:08:03.791Z,15.80
2018-08-19T21:10:32.573Z,15.70
2018-08-19T21:13:00.654Z,15.40
2018-08-19T21:15:34.262Z,15.20
2018-08-19T21:18:02.382Z,15.00
2018-08-19T21:20:30.505Z,14.90
2018-08-19T21:22:58.583Z,14.80
2018-08-19T21:25:26.994Z,14.70
2018-08-19T21:27:55.177Z,14.80
2018-08-19T21:30:23.424Z,14.80
2018-08-19T21:32:51.955Z,14.90
2018-08-19T21:35:20.043Z,14.80
2018-08-19T21:37:48.104Z,14.80
2018-08-19T21:40:19.732Z,14.70
2018-08-19T21:42:50.568Z,14.70
2018-08-19T21:45:18.648Z,14.70
2018-08-19T21:47:46.734Z,14.60
2018-08-19T21:50:14.778Z,14.70
2018-08-19T21:52:51.143Z,14.60
2018-08-19T21:55:19.211Z,14.60
2018-08-19T21:57:47.282Z,14.60
2018-08-19T22:00:15.380Z,14.60
2018-08-19T22:02:50.861Z,14.60
2018-08-19T22:05:18.922Z,14.50
2018-08-19T22:07:46.974Z,14.40
2018-08-19T22:10:15.015Z,14.20
2018-08-19T22:12:47.551Z,14.00
2018-08-19T22:15:15.631Z,13.90
2018-08-19T22:17:43.709Z,13.90
2018-08-19T22:20:11.822Z,13.80
2018-08-19T22:22:39.870Z,13.90
2018-08-19T22:25:07.917Z,13.80
2018-08-19T22:27:35.962Z,13.80
2018-08-19T22:30:04.629Z,13.80
2018-08-19T22:32:33.754Z,13.90
2018-08-19T22:35:01.876Z,14.00
2018-08-19T22:37:29.931Z,14.10
2018-08-19T22:39:58.091Z,14.10
2018-08-19T22:42:26.089Z,14.10
2018-08-19T22:44:54.137Z,14.10
2018-08-19T22:47:22.209Z,14.10
2018-08-19T22:49:50.282Z,14.10
2018-08-19T22:52:21.893Z,14.10
2018-08-19T22:54:51.909Z,14.20
2018-08-19T22:57:19.978Z,14.10
2018-08-19T22:59:48.012Z,14.10
2018-08-19T23:02:16.739Z,14.00
2018-08-19T23:04:45.530Z,13.90
2018-08-19T23:07:13.961Z,13.90
2018-08-19T23:09:42.074Z,13.90
2018-08-19T23:12:10.146Z,14.00
2018-08-19T23:14:49.714Z,14.10
2018-08-19T23:17:17.785Z,14.10
2018-08-19T23:19:48.754Z,14.00
2018-08-19T23:22:16.895Z,13.90
2018-08-19T23:24:44.951Z,13.80
2018-08-19T23:27:13.006Z,13.70
2018-08-19T23:29:41.093Z,13.60
2018-08-19T23:32:09.167Z,13.50
2018-08-19T23:34:37.276Z,13.50
2018-08-19T23:37:05.418Z,13.40
2018-08-19T23:39:33.493Z,13.40
2018-08-19T23:42:01.549Z,13.40
2018-08-19T23:44:29.614Z,13.40
2018-08-19T23:58:21.234Z,13.60
